Swaledale, Iowa
Current Conditions -  °F | °C
As of 1:03 PM on Friday 24 Oct 2014 (Local Time) from KMCW Reporting Station
Haze Haze  
Wind Chill: 59°   Ceiling: 200
Heat Index: 59°   Visibility: 1.2mi
Dew Point: 59°   Wind: 8mph
Humidity: 100%   Direction: 190°S
Pressure: 29.92"   Gusts: NA
Location:  42.98°N, 93.32°W
Report Text: KMCW 241803Z AUTO 19007KT 1 1/4SM BR OVC002 15/15 A2992 RMK AO2 T01500150
Loading
Personal Weather Stations






























Interactive Weather Map New forecast layout! Learn more

10-Day Weather Forecast

Advertisements
Track Severe Weather on mobile